sensor_id;sensor_type;location;lat;lon;timestamp;temperature;humidity
39779;DHT22;25454;49.878;8.618;2023-06-10T00:01:36;20.30;81.40
39779;DHT22;25454;49.878;8.618;2023-06-10T00:06:36;20.20;81.60
39779;DHT22;25454;49.878;8.618;2023-06-10T00:11:37;20.20;82.40
39779;DHT22;25454;49.878;8.618;2023-06-10T00:16:38;20.10;82.80
39779;DHT22;25454;49.878;8.618;2023-06-10T00:21:39;20.10;83.20
39779;DHT22;25454;49.878;8.618;2023-06-10T00:26:44;20.00;83.60
39779;DHT22;25454;49.878;8.618;2023-06-10T00:31:45;20.00;84.10
39779;DHT22;25454;49.878;8.618;2023-06-10T00:36:47;19.90;84.50
39779;DHT22;25454;49.878;8.618;2023-06-10T00:41:47;19.80;85.20
39779;DHT22;25454;49.878;8.618;2023-06-10T00:46:48;19.70;85.60
39779;DHT22;25454;49.878;8.618;2023-06-10T00:51:52;19.70;86.00
39779;DHT22;25454;49.878;8.618;2023-06-10T00:56:53;19.60;86.50
39779;DHT22;25454;49.878;8.618;2023-06-10T01:01:56;19.50;87.00
39779;DHT22;25454;49.878;8.618;2023-06-10T01:17:53;19.30;88.30
39779;DHT22;25454;49.878;8.618;2023-06-10T01:22:54;19.20;89.70
39779;DHT22;25454;49.878;8.618;2023-06-10T01:28:12;19.20;89.60
39779;DHT22;25454;49.878;8.618;2023-06-10T01:33:17;19.10;90.20
39779;DHT22;25454;49.878;8.618;2023-06-10T01:38:19;19.00;90.50
39779;DHT22;25454;49.878;8.618;2023-06-10T01:43:21;18.90;90.70
39779;DHT22;25454;49.878;8.618;2023-06-10T01:48:22;18.80;90.80
39779;DHT22;25454;49.878;8.618;2023-06-10T01:53:22;18.80;91.20
39779;DHT22;25454;49.878;8.618;2023-06-10T01:58:23;18.80;91.40
39779;DHT22;25454;49.878;8.618;2023-06-10T02:03:24;18.70;91.60
39779;DHT22;25454;49.878;8.618;2023-06-10T02:08:24;18.70;91.90
39779;DHT22;25454;49.878;8.618;2023-06-10T02:13:25;18.60;92.10
39779;DHT22;25454;49.878;8.618;2023-06-10T02:18:25;18.60;93.00
39779;DHT22;25454;49.878;8.618;2023-06-10T02:23:27;18.50;93.50
39779;DHT22;25454;49.878;8.618;2023-06-10T02:28:28;18.40;93.90
39779;DHT22;25454;49.878;8.618;2023-06-10T02:33:28;18.40;94.20
39779;DHT22;25454;49.878;8.618;2023-06-10T02:38:29;18.30;94.40
39779;DHT22;25454;49.878;8.618;2023-06-10T02:43:29;18.30;94.70
39779;DHT22;25454;49.878;8.618;2023-06-10T02:48:30;18.20;95.30
39779;DHT22;25454;49.878;8.618;2023-06-10T02:53:30;18.20;95.80
39779;DHT22;25454;49.878;8.618;2023-06-10T02:58:31;18.00;96.40
39779;DHT22;25454;49.878;8.618;2023-06-10T03:03:32;17.90;96.90
39779;DHT22;25454;49.878;8.618;2023-06-10T03:08:34;17.90;98.20
39779;DHT22;25454;49.878;8.618;2023-06-10T03:13:34;17.90;99.50
39779;DHT22;25454;49.878;8.618;2023-06-10T03:18:35;17.80;99.90
39779;DHT22;25454;49.878;8.618;2023-06-10T03:23:35;17.70;99.90
39779;DHT22;25454;49.878;8.618;2023-06-10T03:28:39;17.60;99.90
39779;DHT22;25454;49.878;8.618;2023-06-10T03:33:40;17.60;99.90
39779;DHT22;25454;49.878;8.618;2023-06-10T03:38:41;17.60;99.90
39779;DHT22;25454;49.878;8.618;2023-06-10T03:43:41;17.50;99.90
39779;DHT22;25454;49.878;8.618;2023-06-10T03:48:42;17.60;99.90
39779;DHT22;25454;49.878;8.618;2023-06-10T03:53:42;17.60;99.90
39779;DHT22;25454;49.878;8.618;2023-06-10T03:58:43;17.70;99.90
39779;DHT22;25454;49.878;8.618;2023-06-10T04:03:44;17.70;99.90
39779;DHT22;25454;49.878;8.618;2023-06-10T04:08:44;17.80;99.90
39779;DHT22;25454;49.878;8.618;2023-06-10T04:13:45;17.90;99.90
39779;DHT22;25454;49.878;8.618;2023-06-10T04:18:45;18.00;99.90
39779;DHT22;25454;49.878;8.618;2023-06-10T04:23:46;18.00;99.90
39779;DHT22;25454;49.878;8.618;2023-06-10T04:28:46;18.00;99.90
39779;DHT22;25454;49.878;8.618;2023-06-10T04:33:47;18.10;99.90
39779;DHT22;25454;49.878;8.618;2023-06-10T04:38:48;18.70;99.90
39779;DHT22;25454;49.878;8.618;2023-06-10T04:43:48;19.00;99.90
39779;DHT22;25454;49.878;8.618;2023-06-10T04:48:49;18.80;99.90
39779;DHT22;25454;49.878;8.618;2023-06-10T04:53:49;18.70;99.90
39779;DHT22;25454;49.878;8.618;2023-06-10T04:58:50;18.80;99.90
39779;DHT22;25454;49.878;8.618;2023-06-10T05:03:51;18.90;99.90
39779;DHT22;25454;49.878;8.618;2023-06-10T05:08:51;20.80;99.90
39779;DHT22;25454;49.878;8.618;2023-06-10T05:13:52;23.20;96.90
39779;DHT22;25454;49.878;8.618;2023-06-10T05:18:53;24.40;92.00
39779;DHT22;25454;49.878;8.618;2023-06-10T05:23:54;24.90;89.20
39779;DHT22;25454;49.878;8.618;2023-06-10T05:28:55;25.20;85.50
39779;DHT22;25454;49.878;8.618;2023-06-10T05:33:55;25.70;83.00
39779;DHT22;25454;49.878;8.618;2023-06-10T05:38:56;26.00;79.70
39779;DHT22;25454;49.878;8.618;2023-06-10T05:43:57;26.30;78.10
39779;DHT22;25454;49.878;8.618;2023-06-10T05:48:57;26.50;74.60
39779;DHT22;25454;49.878;8.618;2023-06-10T05:53:58;26.50;73.60
39779;DHT22;25454;49.878;8.618;2023-06-10T05:58:58;27.10;71.30
39779;DHT22;25454;49.878;8.618;2023-06-10T06:03:59;27.70;68.30
39779;DHT22;25454;49.878;8.618;2023-06-10T06:08:59;27.70;66.90
39779;DHT22;25454;49.878;8.618;2023-06-10T06:14:00;28.60;64.90
39779;DHT22;25454;49.878;8.618;2023-06-10T06:19:01;28.50;62.40
39779;DHT22;25454;49.878;8.618;2023-06-10T06:24:01;28.20;63.00
39779;DHT22;25454;49.878;8.618;2023-06-10T06:29:02;28.90;61.20
39779;DHT22;25454;49.878;8.618;2023-06-10T06:34:02;29.30;58.80
39779;DHT22;25454;49.878;8.618;2023-06-10T06:39:03;29.80;58.20
39779;DHT22;25454;49.878;8.618;2023-06-10T06:44:04;29.50;57.40
39779;DHT22;25454;49.878;8.618;2023-06-10T06:49:04;29.90;57.80
39779;DHT22;25454;49.878;8.618;2023-06-10T06:54:06;30.10;55.40
39779;DHT22;25454;49.878;8.618;2023-06-10T06:59:07;30.70;54.30
39779;DHT22;25454;49.878;8.618;2023-06-10T07:04:08;31.20;54.20
39779;DHT22;25454;49.878;8.618;2023-06-10T07:09:08;32.50;51.70
39779;DHT22;25454;49.878;8.618;2023-06-10T07:14:09;33.10;50.50
39779;DHT22;25454;49.878;8.618;2023-06-10T07:19:10;32.80;50.60
39779;DHT22;25454;49.878;8.618;2023-06-10T07:24:10;33.00;49.80
39779;DHT22;25454;49.878;8.618;2023-06-10T07:29:11;32.80;50.40
39779;DHT22;25454;49.878;8.618;2023-06-10T07:34:13;33.00;49.60
39779;DHT22;25454;49.878;8.618;2023-06-10T07:39:13;33.60;48.60
39779;DHT22;25454;49.878;8.618;2023-06-10T07:44:14;34.00;48.10
39779;DHT22;25454;49.878;8.618;2023-06-10T07:49:14;34.90;47.00
39779;DHT22;25454;49.878;8.618;2023-06-10T07:54:15;34.70;46.50
39779;DHT22;25454;49.878;8.618;2023-06-10T07:59:16;34.50;47.50
39779;DHT22;25454;49.878;8.618;2023-06-10T08:04:17;35.30;46.20
39779;DHT22;25454;49.878;8.618;2023-06-10T08:09:18;36.00;45.40
39779;DHT22;25454;49.878;8.618;2023-06-10T08:14:18;35.60;44.70
39779;DHT22;25454;49.878;8.618;2023-06-10T08:19:19;35.30;45.40
39779;DHT22;25454;49.878;8.618;2023-06-10T08:24:19;35.60;44.50
39779;DHT22;25454;49.878;8.618;2023-06-10T08:29:20;36.10;43.80
39779;DHT22;25454;49.878;8.618;2023-06-10T08:34:20;36.20;43.30
39779;DHT22;25454;49.878;8.618;2023-06-10T08:39:22;36.00;43.70
39779;DHT22;25454;49.878;8.618;2023-06-10T08:44:28;35.30;43.90
39779;DHT22;25454;49.878;8.618;2023-06-10T08:49:30;36.30;43.30
39779;DHT22;25454;49.878;8.618;2023-06-10T08:54:36;35.90;43.00
39779;DHT22;25454;49.878;8.618;2023-06-10T08:59:38;36.10;42.70
39779;DHT22;25454;49.878;8.618;2023-06-10T09:04:40;35.30;43.10
39779;DHT22;25454;49.878;8.618;2023-06-10T09:09:43;36.00;42.80
39779;DHT22;25454;49.878;8.618;2023-06-10T09:14:44;36.40;41.80
39779;DHT22;25454;49.878;8.618;2023-06-10T09:19:46;36.80;42.10
39779;DHT22;25454;49.878;8.618;2023-06-10T09:24:47;36.70;41.60
39779;DHT22;25454;49.878;8.618;2023-06-10T09:29:52;38.30;41.10
39779;DHT22;25454;49.878;8.618;2023-06-10T09:34:54;38.60;38.60
39779;DHT22;25454;49.878;8.618;2023-06-10T09:40:05;37.30;39.40
39779;DHT22;25454;49.878;8.618;2023-06-10T09:45:06;37.10;40.00
39779;DHT22;25454;49.878;8.618;2023-06-10T09:50:09;37.00;39.80
39779;DHT22;25454;49.878;8.618;2023-06-10T09:55:10;36.90;40.10
39779;DHT22;25454;49.878;8.618;2023-06-10T10:00:12;36.50;40.80
39779;DHT22;25454;49.878;8.618;2023-06-10T10:05:15;36.90;40.00
39779;DHT22;25454;49.878;8.618;2023-06-10T10:10:17;37.70;39.30
39779;DHT22;25454;49.878;8.618;2023-06-10T10:15:18;37.80;39.10
39779;DHT22;25454;49.878;8.618;2023-06-10T10:20:24;37.90;38.60
39779;DHT22;25454;49.878;8.618;2023-06-10T10:25:29;38.70;37.60
39779;DHT22;25454;49.878;8.618;2023-06-10T10:30:42;36.90;40.10
39779;DHT22;25454;49.878;8.618;2023-06-10T10:35:43;38.10;39.50
39779;DHT22;25454;49.878;8.618;2023-06-10T10:40:44;38.50;37.50
39779;DHT22;25454;49.878;8.618;2023-06-10T10:45:46;38.00;37.50
39779;DHT22;25454;49.878;8.618;2023-06-10T10:50:58;38.40;37.30
39779;DHT22;25454;49.878;8.618;2023-06-10T10:56:13;37.50;38.00
39779;DHT22;25454;49.878;8.618;2023-06-10T11:01:14;36.90;38.00
39779;DHT22;25454;49.878;8.618;2023-06-10T11:06:16;37.50;35.10
39779;DHT22;25454;49.878;8.618;2023-06-10T11:11:24;37.30;35.20
39779;DHT22;25454;49.878;8.618;2023-06-10T11:16:27;37.00;34.60
39779;DHT22;25454;49.878;8.618;2023-06-10T11:21:28;36.40;35.30
39779;DHT22;25454;49.878;8.618;2023-06-10T11:31:38;36.20;35.60
39779;DHT22;25454;49.878;8.618;2023-06-10T11:36:41;36.60;34.80
39779;DHT22;25454;49.878;8.618;2023-06-10T11:41:43;34.90;38.00
39779;DHT22;25454;49.878;8.618;2023-06-10T11:46:44;33.10;39.40
39779;DHT22;25454;49.878;8.618;2023-06-10T11:51:45;31.90;41.60
39779;DHT22;25454;49.878;8.618;2023-06-10T11:56:50;30.90;44.00
39779;DHT22;25454;49.878;8.618;2023-06-10T12:01:50;30.70;44.70
39779;DHT22;25454;49.878;8.618;2023-06-10T12:06:52;30.10;45.30
39779;DHT22;25454;49.878;8.618;2023-06-10T12:16:56;30.60;45.10
39779;DHT22;25454;49.878;8.618;2023-06-10T12:21:56;30.70;43.70
39779;DHT22;25454;49.878;8.618;2023-06-10T12:27:00;30.60;44.80
39779;DHT22;25454;49.878;8.618;2023-06-10T12:32:02;30.30;43.90
39779;DHT22;25454;49.878;8.618;2023-06-10T12:37:10;30.00;44.70
39779;DHT22;25454;49.878;8.618;2023-06-10T12:42:14;29.70;44.10
39779;DHT22;25454;49.878;8.618;2023-06-10T12:47:15;30.00;45.30
39779;DHT22;25454;49.878;8.618;2023-06-10T12:52:17;29.90;45.60
39779;DHT22;25454;49.878;8.618;2023-06-10T12:57:18;29.70;45.80
39779;DHT22;25454;49.878;8.618;2023-06-10T13:02:19;29.90;45.70
39779;DHT22;25454;49.878;8.618;2023-06-10T13:07:20;30.10;45.70
39779;DHT22;25454;49.878;8.618;2023-06-10T13:12:25;30.20;45.80
39779;DHT22;25454;49.878;8.618;2023-06-10T13:17:34;30.40;45.90
39779;DHT22;25454;49.878;8.618;2023-06-10T13:22:36;30.10;46.80
39779;DHT22;25454;49.878;8.618;2023-06-10T13:27:37;30.20;42.90
39779;DHT22;25454;49.878;8.618;2023-06-10T13:32:42;30.20;44.30
39779;DHT22;25454;49.878;8.618;2023-06-10T13:37:42;30.30;46.70
39779;DHT22;25454;49.878;8.618;2023-06-10T13:42:43;30.30;47.00
39779;DHT22;25454;49.878;8.618;2023-06-10T13:47:44;30.20;46.80
39779;DHT22;25454;49.878;8.618;2023-06-10T13:52:45;30.10;45.80
39779;DHT22;25454;49.878;8.618;2023-06-10T13:57:45;30.30;46.10
39779;DHT22;25454;49.878;8.618;2023-06-10T14:02:46;30.40;46.90
39779;DHT22;25454;49.878;8.618;2023-06-10T14:07:46;30.50;47.30
39779;DHT22;25454;49.878;8.618;2023-06-10T14:12:47;30.40;46.70
39779;DHT22;25454;49.878;8.618;2023-06-10T14:17:47;30.10;46.70
39779;DHT22;25454;49.878;8.618;2023-06-10T14:22:48;30.30;47.50
39779;DHT22;25454;49.878;8.618;2023-06-10T14:27:48;30.40;47.70
39779;DHT22;25454;49.878;8.618;2023-06-10T14:32:49;30.00;46.80
39779;DHT22;25454;49.878;8.618;2023-06-10T14:37:50;30.00;47.60
39779;DHT22;25454;49.878;8.618;2023-06-10T14:42:50;30.10;47.20
39779;DHT22;25454;49.878;8.618;2023-06-10T14:47:51;30.20;48.20
39779;DHT22;25454;49.878;8.618;2023-06-10T14:52:51;30.10;48.80
39779;DHT22;25454;49.878;8.618;2023-06-10T14:57:52;30.20;48.10
39779;DHT22;25454;49.878;8.618;2023-06-10T15:02:53;30.10;48.00
39779;DHT22;25454;49.878;8.618;2023-06-10T15:07:55;29.90;48.30
39779;DHT22;25454;49.878;8.618;2023-06-10T15:12:56;29.60;48.60
39779;DHT22;25454;49.878;8.618;2023-06-10T15:17:57;29.40;49.30
39779;DHT22;25454;49.878;8.618;2023-06-10T15:22:58;29.20;49.20
39779;DHT22;25454;49.878;8.618;2023-06-10T15:27:58;29.20;50.00
39779;DHT22;25454;49.878;8.618;2023-06-10T15:32:59;29.20;49.50
39779;DHT22;25454;49.878;8.618;2023-06-10T15:37:59;29.40;49.60
39779;DHT22;25454;49.878;8.618;2023-06-10T15:43:00;29.50;49.10
39779;DHT22;25454;49.878;8.618;2023-06-10T15:48:01;29.30;49.80
39779;DHT22;25454;49.878;8.618;2023-06-10T15:53:01;29.20;50.20
39779;DHT22;25454;49.878;8.618;2023-06-10T15:58:02;29.20;50.00
39779;DHT22;25454;49.878;8.618;2023-06-10T16:03:04;29.30;49.80
39779;DHT22;25454;49.878;8.618;2023-06-10T16:08:04;29.30;49.30
39779;DHT22;25454;49.878;8.618;2023-06-10T16:13:05;29.50;49.40
39779;DHT22;25454;49.878;8.618;2023-06-10T16:18:09;29.40;49.30
39779;DHT22;25454;49.878;8.618;2023-06-10T16:23:10;29.40;49.80
39779;DHT22;25454;49.878;8.618;2023-06-10T16:28:10;29.40;49.50
39779;DHT22;25454;49.878;8.618;2023-06-10T16:33:11;29.40;49.10
39779;DHT22;25454;49.878;8.618;2023-06-10T16:38:11;29.30;48.90
39779;DHT22;25454;49.878;8.618;2023-06-10T16:43:12;29.30;50.40
39779;DHT22;25454;49.878;8.618;2023-06-10T16:48:13;29.20;49.60
39779;DHT22;25454;49.878;8.618;2023-06-10T16:53:14;29.10;48.80
39779;DHT22;25454;49.878;8.618;2023-06-10T16:58:16;29.10;48.70
39779;DHT22;25454;49.878;8.618;2023-06-10T17:03:16;29.00;48.70
39779;DHT22;25454;49.878;8.618;2023-06-10T17:08:17;29.00;49.50
39779;DHT22;25454;49.878;8.618;2023-06-10T17:13:17;29.00;49.80
39779;DHT22;25454;49.878;8.618;2023-06-10T17:18:18;29.00;49.90
39779;DHT22;25454;49.878;8.618;2023-06-10T17:23:18;28.80;52.50
39779;DHT22;25454;49.878;8.618;2023-06-10T17:28:19;28.40;53.50
39779;DHT22;25454;49.878;8.618;2023-06-10T17:33:19;28.10;54.80
39779;DHT22;25454;49.878;8.618;2023-06-10T17:38:20;27.90;55.40
39779;DHT22;25454;49.878;8.618;2023-06-10T17:43:22;27.70;55.90
39779;DHT22;25454;49.878;8.618;2023-06-10T17:48:24;27.60;56.60
39779;DHT22;25454;49.878;8.618;2023-06-10T17:53:24;27.50;57.20
39779;DHT22;25454;49.878;8.618;2023-06-10T17:58:25;27.40;58.30
39779;DHT22;25454;49.878;8.618;2023-06-10T18:03:25;27.30;59.30
39779;DHT22;25454;49.878;8.618;2023-06-10T18:08:26;27.30;59.90
39779;DHT22;25454;49.878;8.618;2023-06-10T18:13:28;27.00;61.00
39779;DHT22;25454;49.878;8.618;2023-06-10T18:18:29;26.80;62.40
39779;DHT22;25454;49.878;8.618;2023-06-10T18:23:29;26.50;63.40
39779;DHT22;25454;49.878;8.618;2023-06-10T18:28:30;26.40;64.10
39779;DHT22;25454;49.878;8.618;2023-06-10T18:33:32;26.30;64.50
39779;DHT22;25454;49.878;8.618;2023-06-10T18:38:33;26.20;65.20
39779;DHT22;25454;49.878;8.618;2023-06-10T18:43:34;26.20;65.70
39779;DHT22;25454;49.878;8.618;2023-06-10T18:48:34;26.10;65.90
39779;DHT22;25454;49.878;8.618;2023-06-10T18:53:35;26.00;66.20
39779;DHT22;25454;49.878;8.618;2023-06-10T18:58:35;25.90;66.90
39779;DHT22;25454;49.878;8.618;2023-06-10T19:03:36;25.80;67.50
39779;DHT22;25454;49.878;8.618;2023-06-10T19:08:36;25.80;68.00
39779;DHT22;25454;49.878;8.618;2023-06-10T19:13:37;25.70;68.30
39779;DHT22;25454;49.878;8.618;2023-06-10T19:18:37;25.60;68.90
39779;DHT22;25454;49.878;8.618;2023-06-10T19:23:38;25.60;69.20
39779;DHT22;25454;49.878;8.618;2023-06-10T19:28:39;25.50;69.50
39779;DHT22;25454;49.878;8.618;2023-06-10T19:33:39;25.40;70.60
39779;DHT22;25454;49.878;8.618;2023-06-10T19:38:40;25.30;70.80
39779;DHT22;25454;49.878;8.618;2023-06-10T19:43:40;25.20;71.60
39779;DHT22;25454;49.878;8.618;2023-06-10T19:48:42;25.00;72.30
39779;DHT22;25454;49.878;8.618;2023-06-10T19:53:46;25.00;73.60
39779;DHT22;25454;49.878;8.618;2023-06-10T19:58:48;24.90;73.70
39779;DHT22;25454;49.878;8.618;2023-06-10T20:03:48;24.80;74.00
39779;DHT22;25454;49.878;8.618;2023-06-10T20:08:50;24.80;74.70
39779;DHT22;25454;49.878;8.618;2023-06-10T20:13:50;24.70;75.40
39779;DHT22;25454;49.878;8.618;2023-06-10T20:18:51;24.70;76.10
39779;DHT22;25454;49.878;8.618;2023-06-10T20:23:52;24.70;76.50
39779;DHT22;25454;49.878;8.618;2023-06-10T20:28:53;24.60;77.10
39779;DHT22;25454;49.878;8.618;2023-06-10T20:33:54;24.50;77.40
39779;DHT22;25454;49.878;8.618;2023-06-10T20:38:54;24.50;78.00
39779;DHT22;25454;49.878;8.618;2023-06-10T20:43:55;24.50;78.80
39779;DHT22;25454;49.878;8.618;2023-06-10T20:48:58;24.40;79.20
39779;DHT22;25454;49.878;8.618;2023-06-10T20:54:00;24.40;79.70
39779;DHT22;25454;49.878;8.618;2023-06-10T20:59:00;24.20;80.20
39779;DHT22;25454;49.878;8.618;2023-06-10T21:04:04;24.20;81.00
39779;DHT22;25454;49.878;8.618;2023-06-10T21:09:05;24.20;81.40
39779;DHT22;25454;49.878;8.618;2023-06-10T21:14:05;24.20;82.00
39779;DHT22;25454;49.878;8.618;2023-06-10T21:19:06;24.20;82.00
39779;DHT22;25454;49.878;8.618;2023-06-10T21:24:07;24.10;82.20
39779;DHT22;25454;49.878;8.618;2023-06-10T21:29:08;24.10;82.40
39779;DHT22;25454;49.878;8.618;2023-06-10T21:34:08;24.00;82.50
39779;DHT22;25454;49.878;8.618;2023-06-10T21:39:09;24.00;82.70
39779;DHT22;25454;49.878;8.618;2023-06-10T21:44:10;24.00;82.30
39779;DHT22;25454;49.878;8.618;2023-06-10T21:49:10;23.90;82.30
39779;DHT22;25454;49.878;8.618;2023-06-10T21:54:11;23.90;82.50
39779;DHT22;25454;49.878;8.618;2023-06-10T21:59:13;23.80;82.90
39779;DHT22;25454;49.878;8.618;2023-06-10T22:04:13;23.80;83.10
39779;DHT22;25454;49.878;8.618;2023-06-10T22:09:14;23.70;83.10
39779;DHT22;25454;49.878;8.618;2023-06-10T22:14:15;23.70;83.60
39779;DHT22;25454;49.878;8.618;2023-06-10T22:19:15;23.70;83.50
39779;DHT22;25454;49.878;8.618;2023-06-10T22:24:16;23.60;83.80
39779;DHT22;25454;49.878;8.618;2023-06-10T22:29:16;23.50;83.90
39779;DHT22;25454;49.878;8.618;2023-06-10T22:34:17;23.50;84.30
39779;DHT22;25454;49.878;8.618;2023-06-10T22:39:18;23.50;84.00
39779;DHT22;25454;49.878;8.618;2023-06-10T22:44:19;23.50;84.10
39779;DHT22;25454;49.878;8.618;2023-06-10T22:49:19;23.40;84.00
39779;DHT22;25454;49.878;8.618;2023-06-10T22:54:20;23.40;84.10
39779;DHT22;25454;49.878;8.618;2023-06-10T22:59:20;23.40;84.50
39779;DHT22;25454;49.878;8.618;2023-06-10T23:04:21;23.30;84.90
39779;DHT22;25454;49.878;8.618;2023-06-10T23:09:22;23.30;85.00
39779;DHT22;25454;49.878;8.618;2023-06-10T23:14:22;23.30;85.30
39779;DHT22;25454;49.878;8.618;2023-06-10T23:19:26;23.20;85.90
39779;DHT22;25454;49.878;8.618;2023-06-10T23:24:27;23.20;86.70
39779;DHT22;25454;49.878;8.618;2023-06-10T23:29:30;23.00;88.10
39779;DHT22;25454;49.878;8.618;2023-06-10T23:34:31;22.90;88.70
39779;DHT22;25454;49.878;8.618;2023-06-10T23:39:31;22.80;89.20
39779;DHT22;25454;49.878;8.618;2023-06-10T23:44:32;22.70;89.80
39779;DHT22;25454;49.878;8.618;2023-06-10T23:49:33;22.50;90.20
39779;DHT22;25454;49.878;8.618;2023-06-10T23:54:33;22.40;90.50
39779;DHT22;25454;49.878;8.618;2023-06-10T23:59:34;22.40;90.80
